Aérodrome :
LOGIN :

S'inscrire | Disclaimer

   EN    FR    IT 

 










Légende :    VFR   VFR Marginal   IFR   IFR Intensif   IFR Très Intensif
Visi : 
Plafond : 
>= 8 km
>= 3000ft
5 à 8 km
1000 à 3000 ft
1500m à 5 km
500 à 1000 ft
800 à 1500m
200 à 500 ft
< 800m
< 200 ft
Symboles :   Orages  Brouillard  Fortes neiges  Fortes précipitations  Vent > 20 kt
SIGMETs :   Divers  Orages  Givrage  Turbulence  Onde Orograph.  Cendres Volcan.







- Altitude de l'aérodrome : 289 ft
- Code IATA : BSK


DAUB - Mohamed Khider

DERNIER METAR :
  • 201400Z 26006KT 9999 FEW040 34/19 Q1014

METARs EXPIRÉS :
  • 201300Z 23003KT 9999 FEW040 33/20 Q1015
  • 201200Z 26004KT 9999 FEW040 33/20 Q1016

TAF TAF DAUB
Valide du 20 à 12h jusqu'au 21 à 12h UTC


201100Z 2012/2112 28012KT 9999 FEW040 SCT100
PROB30
TEMPO 2012/2020 FEW033TCU
BECMG 2010/2012 33012KT
Pas de NOTAMs connus pour ce terrain.
1 SIGMET publié pour la FIR Alger (DAAA) :
 
Orages noyés dans la masse
DAAA SIGMET 4 VALID 201300/201600 DAMM
DAAA ALGER FIR EMBD TS OBS E OF LINE N3419 E00619 - N3619 E00300 - N3801 E00519 - TOP FL380 MOV E 15KT NC=



MET'MAP, la Météo Aéronautique d'un coup d'oeil ! - Copyright ORBIFLY Décembre 2007 - Disclaimer

ORBIFLY MET'MAP TEAM :

Programmation & Développement : Alexandra Zaïnal
Conception & Développement : Baudouin d'Aumeries
Co-Programmation & Développement : Marc-Olivier Méhu
Soutien technique & logistique : Manuel Goepfert

Contact : metmap@orbifly.com




SOURCES & CREDITS :

   NOAA